Share

Sasabe, AZ (85633)

1:12 AM MST on April 24, 2014 (GMT -0700)
Nogales International (KOLS) Elev 3944 ft | 31.42 °N, 110.85 °W | Change Station

Current weather conditions updated 18 minutes ago

Clear
Clear
52 °F
Feels Like 52 °F
N
7
Wind Variable Wind from ENE
Sunrise 5:47 AM
Sunset 7:01 PM
Moon Waning Crescent

Today is forecast to be Warmer than yesterday.

Pressure 29.85 in
Visibility 10.0 miles
Clouds Clear
Dew Point 20 °F
Humidity 28%
Rainfall 0.00 in
Snow Depth Not available.
UV 0 out of 16
Pollen 7.70 out of 12
Air Quality Not available.
Flu Activity Local Activity
METAR KOLS 240754Z AUTO 07006KT 10SM CLR 11/M07 A3000 RMK AO2 SLP108 T01111067

More Conditions Fewer Conditions

Pressure 29.85 in
Visibility 10.0 miles
Clouds Clear
Dew Point 20 °F
Humidity 28%
Rainfall 0.00 in
Snow Depth Not available.
UV 0 out of 16
Pollen 7.70 out of 12
Air Quality Not available.
Flu Activity Local Activity
METAR KOLS 240754Z AUTO 07006KT 10SM CLR 11/M07 A3000 RMK AO2 SLP108 T01111067

More Conditions Fewer Conditions

10-Day Weather Forecast

Almanac

Astronomy

Apr. 24, 2014 Rise Set
Actual Time 5:47 AM MST 7:01 PM MST
Civil Twilight 5:22 AM MST 7:26 PM MST
Nautical Twilight 4:52 AM MST 7:56 PM MST
Astronomical Twilight 4:21 AM MST 8:28 PM MST
Moon 2:42 AM MST 2:38 PM MST
Length of Visible Light 14h 04m
Length of Day
13h 13m
Tomorrow will be 1m 43s longer.
Waning Crescent, 28% of the Moon is Illuminated
Today
Waning Crescent
Apr 29
New
May 6
First Quarter
May 14
Full
May 21
Last Quarter

Today's Extremes

State Highs State Lows

Community

  • Stacked
    Stacked
  • clouds approaching Red Sox Nation
    clouds approaching Red Sox Nation
  • Balance
    Balance
  • Nestled In
    Nestled In
  • Stunning Sunrise
    Stunning Sunrise

WunderPhotos

Upload Photos

1,704,573 photos uploaded!

WunderBlogs® & News

Nearby

Snow Depth

Station Depth Elevation
Workman Creek 1 in 6900 ft
Wildcat 0 in 7850 ft
Hannagan Meadows 1 in 9020 ft
Heber 0 in 7640 ft
Promontory 0 in 7930 ft

Coastal Water Temperatures

Place Temperature
No Stations Reporting

Earthquake Activity

City Distance Mag. Time & Date
No recent earthquake activity has been reported nearby.
Minimum magnitude displayed is 2.5.

Nearby Weather Stations

Station Location Temp. Windchill Dew Point Humidity Wind Precip. Elev Updated Type
RAWS SASABE AZ, Arivaca, AZ 50 °F 48 °F 18 °F 28% SW  at  5 mph 0.00 in / hr 3500 ft 12:05 AM MST MADIS

Show More Stations Show Fewer Stations

What do you think?

We're not finished. Please let us know what you like, what you don't like, and what you are still missing.